sensor_id;sensor_type;location;lat;lon;timestamp;temperature;humidity
20827;DHT22;10574;52.508;13.236;2023-04-03T00:01:06;1.40;99.90
20827;DHT22;10574;52.508;13.236;2023-04-03T00:03:34;1.30;99.90
20827;DHT22;10574;52.508;13.236;2023-04-03T00:06:04;1.40;99.90
20827;DHT22;10574;52.508;13.236;2023-04-03T00:08:33;1.30;99.90
20827;DHT22;10574;52.508;13.236;2023-04-03T00:11:01;1.30;99.90
20827;DHT22;10574;52.508;13.236;2023-04-03T00:13:29;1.30;99.90
20827;DHT22;10574;52.508;13.236;2023-04-03T00:15:57;1.30;99.90
20827;DHT22;10574;52.508;13.236;2023-04-03T00:18:25;1.30;99.90
20827;DHT22;10574;52.508;13.236;2023-04-03T00:20:53;1.20;99.90
20827;DHT22;10574;52.508;13.236;2023-04-03T00:23:20;1.20;99.90
20827;DHT22;10574;52.508;13.236;2023-04-03T00:25:50;1.30;99.90
20827;DHT22;10574;52.508;13.236;2023-04-03T00:28:18;1.20;99.90
20827;DHT22;10574;52.508;13.236;2023-04-03T00:30:46;1.20;99.90
20827;DHT22;10574;52.508;13.236;2023-04-03T00:33:14;1.20;99.90
20827;DHT22;10574;52.508;13.236;2023-04-03T00:35:42;1.20;99.90
20827;DHT22;10574;52.508;13.236;2023-04-03T00:38:09;1.10;99.90
20827;DHT22;10574;52.508;13.236;2023-04-03T00:40:41;1.10;99.90
20827;DHT22;10574;52.508;13.236;2023-04-03T00:43:14;1.10;99.90
20827;DHT22;10574;52.508;13.236;2023-04-03T00:45:44;1.10;99.90
20827;DHT22;10574;52.508;13.236;2023-04-03T00:48:36;1.10;99.90
20827;DHT22;10574;52.508;13.236;2023-04-03T00:50:44;1.00;99.90
20827;DHT22;10574;52.508;13.236;2023-04-03T00:53:22;1.00;99.90
20827;DHT22;10574;52.508;13.236;2023-04-03T00:55:47;1.00;99.90
20827;DHT22;10574;52.508;13.236;2023-04-03T00:58:17;1.00;99.90
20827;DHT22;10574;52.508;13.236;2023-04-03T01:00:50;1.00;99.90
20827;DHT22;10574;52.508;13.236;2023-04-03T01:03:19;1.00;99.90
20827;DHT22;10574;52.508;13.236;2023-04-03T01:05:47;1.00;99.90
20827;DHT22;10574;52.508;13.236;2023-04-03T01:08:14;1.00;99.90
20827;DHT22;10574;52.508;13.236;2023-04-03T01:10:42;0.90;99.90
20827;DHT22;10574;52.508;13.236;2023-04-03T01:13:25;0.90;99.90
20827;DHT22;10574;52.508;13.236;2023-04-03T01:15:53;0.90;99.90
20827;DHT22;10574;52.508;13.236;2023-04-03T01:18:25;0.90;99.90
20827;DHT22;10574;52.508;13.236;2023-04-03T01:23:37;0.90;99.90
20827;DHT22;10574;52.508;13.236;2023-04-03T01:26:03;0.90;99.90
20827;DHT22;10574;52.508;13.236;2023-04-03T01:28:33;0.90;99.90
20827;DHT22;10574;52.508;13.236;2023-04-03T01:31:25;0.80;99.90
20827;DHT22;10574;52.508;13.236;2023-04-03T01:33:52;0.80;99.90
20827;DHT22;10574;52.508;13.236;2023-04-03T01:36:26;0.80;99.90
20827;DHT22;10574;52.508;13.236;2023-04-03T01:38:54;0.80;99.90
20827;DHT22;10574;52.508;13.236;2023-04-03T01:41:22;0.80;99.90
20827;DHT22;10574;52.508;13.236;2023-04-03T01:43:50;0.70;99.90
20827;DHT22;10574;52.508;13.236;2023-04-03T01:46:18;0.80;99.90
20827;DHT22;10574;52.508;13.236;2023-04-03T01:48:46;0.80;99.90
20827;DHT22;10574;52.508;13.236;2023-04-03T01:51:15;0.80;99.90
20827;DHT22;10574;52.508;13.236;2023-04-03T01:53:42;0.80;99.90
20827;DHT22;10574;52.508;13.236;2023-04-03T01:56:10;0.80;99.90
20827;DHT22;10574;52.508;13.236;2023-04-03T01:58:38;0.70;99.90
20827;DHT22;10574;52.508;13.236;2023-04-03T02:01:06;0.70;99.90
20827;DHT22;10574;52.508;13.236;2023-04-03T02:03:33;0.70;99.90
20827;DHT22;10574;52.508;13.236;2023-04-03T02:06:02;0.70;99.90
20827;DHT22;10574;52.508;13.236;2023-04-03T02:08:30;0.60;99.90
20827;DHT22;10574;52.508;13.236;2023-04-03T02:10:57;0.60;99.90
20827;DHT22;10574;52.508;13.236;2023-04-03T02:13:25;0.60;99.90
20827;DHT22;10574;52.508;13.236;2023-04-03T02:15:53;0.50;99.90
20827;DHT22;10574;52.508;13.236;2023-04-03T02:18:20;0.50;99.90
20827;DHT22;10574;52.508;13.236;2023-04-03T02:20:48;0.50;99.90
20827;DHT22;10574;52.508;13.236;2023-04-03T02:23:16;0.50;99.90
20827;DHT22;10574;52.508;13.236;2023-04-03T02:25:44;0.50;99.90
20827;DHT22;10574;52.508;13.236;2023-04-03T02:28:11;0.50;99.90
20827;DHT22;10574;52.508;13.236;2023-04-03T02:30:39;0.40;99.90
20827;DHT22;10574;52.508;13.236;2023-04-03T02:33:07;0.40;99.90
20827;DHT22;10574;52.508;13.236;2023-04-03T02:35:34;0.40;99.90
20827;DHT22;10574;52.508;13.236;2023-04-03T02:38:03;0.40;99.90
20827;DHT22;10574;52.508;13.236;2023-04-03T02:40:31;0.40;99.90
20827;DHT22;10574;52.508;13.236;2023-04-03T02:42:58;0.40;99.90
20827;DHT22;10574;52.508;13.236;2023-04-03T02:45:26;0.40;99.90
20827;DHT22;10574;52.508;13.236;2023-04-03T02:47:54;0.40;99.90
20827;DHT22;10574;52.508;13.236;2023-04-03T02:50:21;0.40;99.90
20827;DHT22;10574;52.508;13.236;2023-04-03T02:52:49;0.40;99.90
20827;DHT22;10574;52.508;13.236;2023-04-03T02:55:17;0.30;99.90
20827;DHT22;10574;52.508;13.236;2023-04-03T02:57:45;0.30;99.90
20827;DHT22;10574;52.508;13.236;2023-04-03T03:00:13;0.30;99.90
20827;DHT22;10574;52.508;13.236;2023-04-03T03:02:41;0.30;99.90
20827;DHT22;10574;52.508;13.236;2023-04-03T03:05:08;0.30;99.90
20827;DHT22;10574;52.508;13.236;2023-04-03T03:07:36;0.20;99.90
20827;DHT22;10574;52.508;13.236;2023-04-03T03:10:04;0.20;99.90
20827;DHT22;10574;52.508;13.236;2023-04-03T03:12:32;0.20;99.90
20827;DHT22;10574;52.508;13.236;2023-04-03T03:15:00;0.30;99.90
20827;DHT22;10574;52.508;13.236;2023-04-03T03:17:27;0.30;99.90
20827;DHT22;10574;52.508;13.236;2023-04-03T03:19:55;0.20;99.90
20827;DHT22;10574;52.508;13.236;2023-04-03T03:22:23;0.20;99.90
20827;DHT22;10574;52.508;13.236;2023-04-03T03:24:50;0.20;99.90
20827;DHT22;10574;52.508;13.236;2023-04-03T03:27:18;0.20;99.90
20827;DHT22;10574;52.508;13.236;2023-04-03T03:29:46;0.20;99.90
20827;DHT22;10574;52.508;13.236;2023-04-03T03:32:14;0.20;99.90
20827;DHT22;10574;52.508;13.236;2023-04-03T03:34:42;0.20;99.90
20827;DHT22;10574;52.508;13.236;2023-04-03T03:37:09;0.20;99.90
20827;DHT22;10574;52.508;13.236;2023-04-03T03:39:37;0.20;99.90
20827;DHT22;10574;52.508;13.236;2023-04-03T03:42:05;0.20;99.90
20827;DHT22;10574;52.508;13.236;2023-04-03T03:44:33;0.10;99.90
20827;DHT22;10574;52.508;13.236;2023-04-03T03:47:01;0.10;99.90
20827;DHT22;10574;52.508;13.236;2023-04-03T03:49:29;0.10;99.90
20827;DHT22;10574;52.508;13.236;2023-04-03T03:51:57;0.00;99.90
20827;DHT22;10574;52.508;13.236;2023-04-03T03:54:25;0.00;99.90
20827;DHT22;10574;52.508;13.236;2023-04-03T03:56:52;0.00;99.90
20827;DHT22;10574;52.508;13.236;2023-04-03T03:59:20;0.10;99.90
20827;DHT22;10574;52.508;13.236;2023-04-03T04:01:48;0.10;99.90
20827;DHT22;10574;52.508;13.236;2023-04-03T04:04:15;0.00;99.90
20827;DHT22;10574;52.508;13.236;2023-04-03T04:06:43;0.00;99.90
20827;DHT22;10574;52.508;13.236;2023-04-03T04:09:11;0.00;99.90
20827;DHT22;10574;52.508;13.236;2023-04-03T04:11:39;0.10;99.90
20827;DHT22;10574;52.508;13.236;2023-04-03T04:14:07;0.10;99.90
20827;DHT22;10574;52.508;13.236;2023-04-03T04:16:36;0.10;99.90
20827;DHT22;10574;52.508;13.236;2023-04-03T04:19:04;0.00;99.90
20827;DHT22;10574;52.508;13.236;2023-04-03T04:21:31;-0.10;99.90
20827;DHT22;10574;52.508;13.236;2023-04-03T04:23:59;-0.10;99.90
20827;DHT22;10574;52.508;13.236;2023-04-03T04:26:27;0.00;99.90
20827;DHT22;10574;52.508;13.236;2023-04-03T04:28:55;0.00;99.90
20827;DHT22;10574;52.508;13.236;2023-04-03T04:31:22;0.00;99.90
20827;DHT22;10574;52.508;13.236;2023-04-03T04:33:50;-0.10;99.90
20827;DHT22;10574;52.508;13.236;2023-04-03T04:36:18;0.00;99.90
20827;DHT22;10574;52.508;13.236;2023-04-03T04:38:46;0.00;99.90
20827;DHT22;10574;52.508;13.236;2023-04-03T04:41:14;0.00;99.90
20827;DHT22;10574;52.508;13.236;2023-04-03T04:43:42;0.00;99.90
20827;DHT22;10574;52.508;13.236;2023-04-03T04:46:10;0.00;99.90
20827;DHT22;10574;52.508;13.236;2023-04-03T04:48:41;0.10;99.90
20827;DHT22;10574;52.508;13.236;2023-04-03T04:51:08;0.10;99.90
20827;DHT22;10574;52.508;13.236;2023-04-03T04:53:38;0.10;99.90
20827;DHT22;10574;52.508;13.236;2023-04-03T04:56:06;0.00;99.90
20827;DHT22;10574;52.508;13.236;2023-04-03T04:58:33;0.00;99.90
20827;DHT22;10574;52.508;13.236;2023-04-03T05:01:03;0.00;99.90
20827;DHT22;10574;52.508;13.236;2023-04-03T05:03:31;0.10;99.90
20827;DHT22;10574;52.508;13.236;2023-04-03T05:05:59;0.00;99.90
20827;DHT22;10574;52.508;13.236;2023-04-03T05:08:26;0.10;99.90
20827;DHT22;10574;52.508;13.236;2023-04-03T05:10:54;0.20;99.90
20827;DHT22;10574;52.508;13.236;2023-04-03T05:13:22;0.30;99.90
20827;DHT22;10574;52.508;13.236;2023-04-03T05:15:49;0.30;99.90
20827;DHT22;10574;52.508;13.236;2023-04-03T05:18:17;0.50;99.90
20827;DHT22;10574;52.508;13.236;2023-04-03T05:20:45;0.80;99.90
20827;DHT22;10574;52.508;13.236;2023-04-03T05:23:13;1.10;99.90
20827;DHT22;10574;52.508;13.236;2023-04-03T05:25:40;1.40;99.90
20827;DHT22;10574;52.508;13.236;2023-04-03T05:28:10;1.40;99.90
20827;DHT22;10574;52.508;13.236;2023-04-03T05:30:37;1.40;99.90
20827;DHT22;10574;52.508;13.236;2023-04-03T05:33:05;1.60;99.90
20827;DHT22;10574;52.508;13.236;2023-04-03T05:35:35;1.90;99.90
20827;DHT22;10574;52.508;13.236;2023-04-03T05:38:02;2.40;99.90
20827;DHT22;10574;52.508;13.236;2023-04-03T05:40:30;3.10;99.90
20827;DHT22;10574;52.508;13.236;2023-04-03T05:42:57;4.10;99.90
20827;DHT22;10574;52.508;13.236;2023-04-03T05:45:25;4.50;99.90
20827;DHT22;10574;52.508;13.236;2023-04-03T05:47:53;4.70;99.90
20827;DHT22;10574;52.508;13.236;2023-04-03T05:50:21;4.60;99.90
20827;DHT22;10574;52.508;13.236;2023-04-03T05:52:49;4.20;99.90
20827;DHT22;10574;52.508;13.236;2023-04-03T05:55:18;4.40;99.90
20827;DHT22;10574;52.508;13.236;2023-04-03T05:57:46;4.30;99.90
20827;DHT22;10574;52.508;13.236;2023-04-03T06:00:15;2.90;99.90
20827;DHT22;10574;52.508;13.236;2023-04-03T06:02:43;2.20;99.90
20827;DHT22;10574;52.508;13.236;2023-04-03T06:05:10;2.10;99.90
20827;DHT22;10574;52.508;13.236;2023-04-03T06:07:39;2.00;99.90
20827;DHT22;10574;52.508;13.236;2023-04-03T06:10:08;2.20;99.90
20827;DHT22;10574;52.508;13.236;2023-04-03T06:12:56;2.30;99.90
20827;DHT22;10574;52.508;13.236;2023-04-03T06:15:23;2.60;99.90
20827;DHT22;10574;52.508;13.236;2023-04-03T06:17:51;2.60;99.90
20827;DHT22;10574;52.508;13.236;2023-04-03T06:20:19;2.60;99.90
20827;DHT22;10574;52.508;13.236;2023-04-03T06:22:47;2.50;99.90
20827;DHT22;10574;52.508;13.236;2023-04-03T06:25:15;2.50;99.90
20827;DHT22;10574;52.508;13.236;2023-04-03T06:27:45;2.50;99.90
20827;DHT22;10574;52.508;13.236;2023-04-03T06:30:13;2.40;99.90
20827;DHT22;10574;52.508;13.236;2023-04-03T06:32:41;2.60;99.90
20827;DHT22;10574;52.508;13.236;2023-04-03T06:35:09;2.90;99.90
20827;DHT22;10574;52.508;13.236;2023-04-03T06:37:37;3.50;99.90
20827;DHT22;10574;52.508;13.236;2023-04-03T06:40:05;3.10;99.90
20827;DHT22;10574;52.508;13.236;2023-04-03T06:42:33;2.90;99.90
20827;DHT22;10574;52.508;13.236;2023-04-03T06:45:03;3.20;99.90
20827;DHT22;10574;52.508;13.236;2023-04-03T06:47:31;3.30;99.90
20827;DHT22;10574;52.508;13.236;2023-04-03T06:49:59;3.40;99.90
20827;DHT22;10574;52.508;13.236;2023-04-03T06:52:27;3.50;99.90
20827;DHT22;10574;52.508;13.236;2023-04-03T06:54:55;4.00;99.90
20827;DHT22;10574;52.508;13.236;2023-04-03T06:57:24;4.40;99.90
20827;DHT22;10574;52.508;13.236;2023-04-03T06:59:52;5.00;99.90
20827;DHT22;10574;52.508;13.236;2023-04-03T07:02:20;5.40;99.90
20827;DHT22;10574;52.508;13.236;2023-04-03T07:04:48;5.00;99.90
20827;DHT22;10574;52.508;13.236;2023-04-03T07:07:16;4.70;99.90
20827;DHT22;10574;52.508;13.236;2023-04-03T07:09:44;4.50;99.90
20827;DHT22;10574;52.508;13.236;2023-04-03T07:12:13;4.40;99.90
20827;DHT22;10574;52.508;13.236;2023-04-03T07:14:41;3.90;99.90
20827;DHT22;10574;52.508;13.236;2023-04-03T07:17:09;3.80;99.90
20827;DHT22;10574;52.508;13.236;2023-04-03T07:19:37;3.90;99.90
20827;DHT22;10574;52.508;13.236;2023-04-03T07:22:04;4.10;99.90
20827;DHT22;10574;52.508;13.236;2023-04-03T07:24:32;4.30;99.90
20827;DHT22;10574;52.508;13.236;2023-04-03T07:27:01;4.50;99.90
20827;DHT22;10574;52.508;13.236;2023-04-03T07:29:29;4.00;99.90
20827;DHT22;10574;52.508;13.236;2023-04-03T07:31:57;3.80;99.90
20827;DHT22;10574;52.508;13.236;2023-04-03T07:34:25;3.20;99.90
20827;DHT22;10574;52.508;13.236;2023-04-03T07:36:53;3.10;99.90
20827;DHT22;10574;52.508;13.236;2023-04-03T07:39:21;3.00;99.90
20827;DHT22;10574;52.508;13.236;2023-04-03T07:41:49;2.90;99.90
20827;DHT22;10574;52.508;13.236;2023-04-03T07:44:17;3.00;99.90
20827;DHT22;10574;52.508;13.236;2023-04-03T07:46:45;3.20;99.90
20827;DHT22;10574;52.508;13.236;2023-04-03T07:49:13;3.20;99.90
20827;DHT22;10574;52.508;13.236;2023-04-03T07:51:45;3.20;99.90
20827;DHT22;10574;52.508;13.236;2023-04-03T07:54:13;3.10;99.90
20827;DHT22;10574;52.508;13.236;2023-04-03T07:56:41;3.10;99.90
20827;DHT22;10574;52.508;13.236;2023-04-03T07:59:10;3.30;99.90
20827;DHT22;10574;52.508;13.236;2023-04-03T08:01:38;3.30;99.90
20827;DHT22;10574;52.508;13.236;2023-04-03T08:04:06;3.30;99.90
20827;DHT22;10574;52.508;13.236;2023-04-03T08:06:33;3.50;99.90
20827;DHT22;10574;52.508;13.236;2023-04-03T08:09:03;3.50;99.90
20827;DHT22;10574;52.508;13.236;2023-04-03T08:11:31;3.30;99.90
20827;DHT22;10574;52.508;13.236;2023-04-03T08:13:59;3.30;99.90
20827;DHT22;10574;52.508;13.236;2023-04-03T08:16:27;3.40;99.90
20827;DHT22;10574;52.508;13.236;2023-04-03T08:18:58;3.50;99.90
20827;DHT22;10574;52.508;13.236;2023-04-03T08:21:26;3.50;99.90
20827;DHT22;10574;52.508;13.236;2023-04-03T08:23:53;3.40;99.90
20827;DHT22;10574;52.508;13.236;2023-04-03T08:26:22;3.40;99.90
20827;DHT22;10574;52.508;13.236;2023-04-03T08:28:49;3.50;99.90
20827;DHT22;10574;52.508;13.236;2023-04-03T08:31:18;3.40;99.90
20827;DHT22;10574;52.508;13.236;2023-04-03T08:33:46;3.40;99.90
20827;DHT22;10574;52.508;13.236;2023-04-03T08:36:21;3.40;99.90
20827;DHT22;10574;52.508;13.236;2023-04-03T08:38:49;3.50;99.90
20827;DHT22;10574;52.508;13.236;2023-04-03T08:41:38;3.50;99.90
20827;DHT22;10574;52.508;13.236;2023-04-03T08:44:27;3.70;99.90
20827;DHT22;10574;52.508;13.236;2023-04-03T08:47:11;3.60;99.90
20827;DHT22;10574;52.508;13.236;2023-04-03T08:49:52;3.80;99.90
20827;DHT22;10574;52.508;13.236;2023-04-03T08:55:00;4.00;99.90
20827;DHT22;10574;52.508;13.236;2023-04-03T08:57:41;4.00;99.90
20827;DHT22;10574;52.508;13.236;2023-04-03T09:00:13;4.00;99.90
20827;DHT22;10574;52.508;13.236;2023-04-03T09:02:41;3.60;99.90
20827;DHT22;10574;52.508;13.236;2023-04-03T09:05:11;3.50;99.90
20827;DHT22;10574;52.508;13.236;2023-04-03T09:07:49;3.50;99.90
20827;DHT22;10574;52.508;13.236;2023-04-03T09:10:15;3.50;99.90
20827;DHT22;10574;52.508;13.236;2023-04-03T09:12:50;3.50;99.90
20827;DHT22;10574;52.508;13.236;2023-04-03T09:15:22;3.70;99.90
20827;DHT22;10574;52.508;13.236;2023-04-03T09:23:46;3.80;99.90
20827;DHT22;10574;52.508;13.236;2023-04-03T09:26:14;3.90;99.90
20827;DHT22;10574;52.508;13.236;2023-04-03T09:28:41;3.70;99.90
20827;DHT22;10574;52.508;13.236;2023-04-03T09:31:29;3.70;99.90
20827;DHT22;10574;52.508;13.236;2023-04-03T09:33:54;3.80;99.90
20827;DHT22;10574;52.508;13.236;2023-04-03T09:36:46;3.90;99.90
20827;DHT22;10574;52.508;13.236;2023-04-03T09:39:15;3.80;99.90
20827;DHT22;10574;52.508;13.236;2023-04-03T09:41:55;3.90;99.90
20827;DHT22;10574;52.508;13.236;2023-04-03T09:44:22;4.10;99.90
20827;DHT22;10574;52.508;13.236;2023-04-03T09:46:50;4.10;99.90
20827;DHT22;10574;52.508;13.236;2023-04-03T09:49:18;4.00;99.90
20827;DHT22;10574;52.508;13.236;2023-04-03T09:51:46;4.10;99.90
20827;DHT22;10574;52.508;13.236;2023-04-03T09:54:37;4.20;99.90
20827;DHT22;10574;52.508;13.236;2023-04-03T09:57:11;4.00;99.90
20827;DHT22;10574;52.508;13.236;2023-04-03T09:59:57;4.30;99.90
20827;DHT22;10574;52.508;13.236;2023-04-03T10:02:30;4.30;99.90
20827;DHT22;10574;52.508;13.236;2023-04-03T10:04:56;4.40;99.90
20827;DHT22;10574;52.508;13.236;2023-04-03T10:07:36;4.70;99.90
20827;DHT22;10574;52.508;13.236;2023-04-03T10:12:46;4.50;99.90
20827;DHT22;10574;52.508;13.236;2023-04-03T10:15:16;4.50;99.90
20827;DHT22;10574;52.508;13.236;2023-04-03T10:17:56;4.70;99.90
20827;DHT22;10574;52.508;13.236;2023-04-03T10:20:39;4.60;99.90
20827;DHT22;10574;52.508;13.236;2023-04-03T10:23:14;4.60;99.90
20827;DHT22;10574;52.508;13.236;2023-04-03T10:26:03;4.50;99.90
20827;DHT22;10574;52.508;13.236;2023-04-03T10:29:02;4.30;99.90
20827;DHT22;10574;52.508;13.236;2023-04-03T10:31:46;4.30;99.90
20827;DHT22;10574;52.508;13.236;2023-04-03T10:34:29;4.40;99.90
20827;DHT22;10574;52.508;13.236;2023-04-03T10:42:48;4.40;99.90
20827;DHT22;10574;52.508;13.236;2023-04-03T10:48:18;4.80;99.90
20827;DHT22;10574;52.508;13.236;2023-04-03T10:51:09;5.40;99.90
20827;DHT22;10574;52.508;13.236;2023-04-03T10:53:39;5.40;99.90
20827;DHT22;10574;52.508;13.236;2023-04-03T10:58:57;5.50;99.90
20827;DHT22;10574;52.508;13.236;2023-04-03T11:01:33;5.60;99.90
20827;DHT22;10574;52.508;13.236;2023-04-03T11:04:02;5.60;99.90
20827;DHT22;10574;52.508;13.236;2023-04-03T11:06:36;5.70;99.90
20827;DHT22;10574;52.508;13.236;2023-04-03T11:09:19;5.70;99.90
20827;DHT22;10574;52.508;13.236;2023-04-03T11:11:47;5.80;99.90
20827;DHT22;10574;52.508;13.236;2023-04-03T11:14:20;5.90;99.90
20827;DHT22;10574;52.508;13.236;2023-04-03T11:16:48;6.00;99.90
20827;DHT22;10574;52.508;13.236;2023-04-03T11:19:33;6.00;99.90
20827;DHT22;10574;52.508;13.236;2023-04-03T11:24:46;5.90;99.90
20827;DHT22;10574;52.508;13.236;2023-04-03T11:27:17;6.00;99.90
20827;DHT22;10574;52.508;13.236;2023-04-03T11:29:47;5.80;99.90
20827;DHT22;10574;52.508;13.236;2023-04-03T11:32:43;5.80;99.90
20827;DHT22;10574;52.508;13.236;2023-04-03T11:35:08;5.80;99.90
20827;DHT22;10574;52.508;13.236;2023-04-03T11:37:45;5.70;99.90
20827;DHT22;10574;52.508;13.236;2023-04-03T11:40:20;5.70;99.90
20827;DHT22;10574;52.508;13.236;2023-04-03T11:42:49;5.50;99.90
20827;DHT22;10574;52.508;13.236;2023-04-03T11:48:02;5.30;99.90
20827;DHT22;10574;52.508;13.236;2023-04-03T11:55:46;5.70;99.90
20827;DHT22;10574;52.508;13.236;2023-04-03T11:58:19;5.70;99.90
20827;DHT22;10574;52.508;13.236;2023-04-03T12:00:54;5.60;99.90
20827;DHT22;10574;52.508;13.236;2023-04-03T12:08:48;5.30;99.90
20827;DHT22;10574;52.508;13.236;2023-04-03T12:11:33;5.40;99.90
20827;DHT22;10574;52.508;13.236;2023-04-03T12:14:04;5.50;99.90
20827;DHT22;10574;52.508;13.236;2023-04-03T12:24:31;5.40;99.90
20827;DHT22;10574;52.508;13.236;2023-04-03T12:35:18;5.60;99.90
20827;DHT22;10574;52.508;13.236;2023-04-03T12:40:52;5.80;99.90
20827;DHT22;10574;52.508;13.236;2023-04-03T12:43:54;5.90;99.90
20827;DHT22;10574;52.508;13.236;2023-04-03T12:46:21;6.00;99.90
20827;DHT22;10574;52.508;13.236;2023-04-03T12:48:57;6.10;99.90
20827;DHT22;10574;52.508;13.236;2023-04-03T12:51:34;6.00;99.90
20827;DHT22;10574;52.508;13.236;2023-04-03T12:54:01;5.90;99.90
20827;DHT22;10574;52.508;13.236;2023-04-03T12:56:31;5.70;99.90
20827;DHT22;10574;52.508;13.236;2023-04-03T12:59:16;5.50;99.90
20827;DHT22;10574;52.508;13.236;2023-04-03T13:01:59;5.40;99.90
20827;DHT22;10574;52.508;13.236;2023-04-03T13:04:31;5.60;99.90
20827;DHT22;10574;52.508;13.236;2023-04-03T13:06:59;5.60;99.90
20827;DHT22;10574;52.508;13.236;2023-04-03T13:09:29;5.70;99.90
20827;DHT22;10574;52.508;13.236;2023-04-03T13:14:28;5.50;99.20
20827;DHT22;10574;52.508;13.236;2023-04-03T13:17:14;5.70;99.90
20827;DHT22;10574;52.508;13.236;2023-04-03T13:19:43;5.80;99.90
20827;DHT22;10574;52.508;13.236;2023-04-03T13:22:39;5.70;99.90
20827;DHT22;10574;52.508;13.236;2023-04-03T13:24:48;5.60;99.90
20827;DHT22;10574;52.508;13.236;2023-04-03T13:27:17;5.30;99.90
20827;DHT22;10574;52.508;13.236;2023-04-03T13:29:50;5.50;99.90
20827;DHT22;10574;52.508;13.236;2023-04-03T13:32:22;5.60;99.90
20827;DHT22;10574;52.508;13.236;2023-04-03T13:34:49;5.60;99.90
20827;DHT22;10574;52.508;13.236;2023-04-03T13:37:29;5.60;99.90
20827;DHT22;10574;52.508;13.236;2023-04-03T13:42:36;5.20;99.90
20827;DHT22;10574;52.508;13.236;2023-04-03T13:45:25;5.00;99.90
20827;DHT22;10574;52.508;13.236;2023-04-03T13:48:18;5.00;99.90
20827;DHT22;10574;52.508;13.236;2023-04-03T13:50:26;4.90;99.90
20827;DHT22;10574;52.508;13.236;2023-04-03T13:53:00;5.00;99.90
20827;DHT22;10574;52.508;13.236;2023-04-03T13:55:39;4.90;99.90
20827;DHT22;10574;52.508;13.236;2023-04-03T14:00:53;5.20;99.90
20827;DHT22;10574;52.508;13.236;2023-04-03T14:03:30;5.10;99.90
20827;DHT22;10574;52.508;13.236;2023-04-03T14:05:55;5.00;99.90
20827;DHT22;10574;52.508;13.236;2023-04-03T14:08:23;4.90;99.90
20827;DHT22;10574;52.508;13.236;2023-04-03T14:10:52;4.90;99.90
20827;DHT22;10574;52.508;13.236;2023-04-03T14:13:21;5.00;99.90
20827;DHT22;10574;52.508;13.236;2023-04-03T14:15:50;5.00;99.90
20827;DHT22;10574;52.508;13.236;2023-04-03T14:18:20;5.00;99.90
20827;DHT22;10574;52.508;13.236;2023-04-03T14:20:48;4.90;99.90
20827;DHT22;10574;52.508;13.236;2023-04-03T14:23:16;5.10;99.90
20827;DHT22;10574;52.508;13.236;2023-04-03T14:25:44;4.90;99.90
20827;DHT22;10574;52.508;13.236;2023-04-03T14:28:15;4.90;99.90
20827;DHT22;10574;52.508;13.236;2023-04-03T14:30:42;5.00;99.90
20827;DHT22;10574;52.508;13.236;2023-04-03T14:33:16;4.90;99.90
20827;DHT22;10574;52.508;13.236;2023-04-03T14:35:45;4.80;99.90
20827;DHT22;10574;52.508;13.236;2023-04-03T14:38:27;4.80;99.90
20827;DHT22;10574;52.508;13.236;2023-04-03T14:40:55;4.80;99.90
20827;DHT22;10574;52.508;13.236;2023-04-03T14:43:23;4.80;99.90
20827;DHT22;10574;52.508;13.236;2023-04-03T14:45:53;4.90;99.90
20827;DHT22;10574;52.508;13.236;2023-04-03T14:48:23;5.00;99.90
20827;DHT22;10574;52.508;13.236;2023-04-03T14:50:52;4.80;99.90
20827;DHT22;10574;52.508;13.236;2023-04-03T14:53:21;4.90;99.90
20827;DHT22;10574;52.508;13.236;2023-04-03T14:55:52;5.10;99.90
20827;DHT22;10574;52.508;13.236;2023-04-03T14:58:21;5.40;99.90
20827;DHT22;10574;52.508;13.236;2023-04-03T15:00:48;5.40;99.90
20827;DHT22;10574;52.508;13.236;2023-04-03T15:03:21;5.50;99.90
20827;DHT22;10574;52.508;13.236;2023-04-03T15:05:50;5.50;99.90
20827;DHT22;10574;52.508;13.236;2023-04-03T15:10:48;5.20;99.90
20827;DHT22;10574;52.508;13.236;2023-04-03T15:13:16;5.10;99.90
20827;DHT22;10574;52.508;13.236;2023-04-03T15:15:44;5.10;99.90
20827;DHT22;10574;52.508;13.236;2023-04-03T15:18:14;5.10;99.90
20827;DHT22;10574;52.508;13.236;2023-04-03T15:20:43;5.10;99.90
20827;DHT22;10574;52.508;13.236;2023-04-03T15:23:12;5.10;99.90
20827;DHT22;10574;52.508;13.236;2023-04-03T15:25:44;5.10;99.90
20827;DHT22;10574;52.508;13.236;2023-04-03T15:28:18;5.10;99.90
20827;DHT22;10574;52.508;13.236;2023-04-03T15:30:46;5.10;99.90
20827;DHT22;10574;52.508;13.236;2023-04-03T15:33:14;5.10;99.90
20827;DHT22;10574;52.508;13.236;2023-04-03T15:35:42;5.20;99.90
20827;DHT22;10574;52.508;13.236;2023-04-03T15:38:10;4.90;99.90
20827;DHT22;10574;52.508;13.236;2023-04-03T15:40:38;5.00;99.90
20827;DHT22;10574;52.508;13.236;2023-04-03T15:43:07;4.90;99.90
20827;DHT22;10574;52.508;13.236;2023-04-03T15:45:35;4.80;99.90
20827;DHT22;10574;52.508;13.236;2023-04-03T15:48:04;4.70;99.90
20827;DHT22;10574;52.508;13.236;2023-04-03T15:50:34;4.70;99.90
20827;DHT22;10574;52.508;13.236;2023-04-03T15:53:02;4.70;99.90
20827;DHT22;10574;52.508;13.236;2023-04-03T15:55:32;4.60;99.90
20827;DHT22;10574;52.508;13.236;2023-04-03T15:58:00;4.50;99.90
20827;DHT22;10574;52.508;13.236;2023-04-03T16:00:29;4.50;99.90
20827;DHT22;10574;52.508;13.236;2023-04-03T16:02:59;4.40;99.90
20827;DHT22;10574;52.508;13.236;2023-04-03T16:05:28;4.50;99.90
20827;DHT22;10574;52.508;13.236;2023-04-03T16:07:57;4.60;99.90
20827;DHT22;10574;52.508;13.236;2023-04-03T16:10:25;4.60;99.90
20827;DHT22;10574;52.508;13.236;2023-04-03T16:12:53;4.60;99.90
20827;DHT22;10574;52.508;13.236;2023-04-03T16:15:21;4.60;99.90
20827;DHT22;10574;52.508;13.236;2023-04-03T16:17:49;4.60;99.90
20827;DHT22;10574;52.508;13.236;2023-04-03T16:20:17;4.50;99.90
20827;DHT22;10574;52.508;13.236;2023-04-03T16:22:45;4.50;99.90
20827;DHT22;10574;52.508;13.236;2023-04-03T16:25:13;4.50;99.90
20827;DHT22;10574;52.508;13.236;2023-04-03T16:27:41;4.40;99.90
20827;DHT22;10574;52.508;13.236;2023-04-03T16:30:09;4.30;99.90
20827;DHT22;10574;52.508;13.236;2023-04-03T16:32:38;4.20;99.90
20827;DHT22;10574;52.508;13.236;2023-04-03T16:35:06;4.30;99.90
20827;DHT22;10574;52.508;13.236;2023-04-03T16:37:36;4.40;99.90
20827;DHT22;10574;52.508;13.236;2023-04-03T16:40:05;4.50;99.90
20827;DHT22;10574;52.508;13.236;2023-04-03T16:42:33;4.50;99.90
20827;DHT22;10574;52.508;13.236;2023-04-03T16:45:00;4.40;99.90
20827;DHT22;10574;52.508;13.236;2023-04-03T16:47:30;4.40;99.90
20827;DHT22;10574;52.508;13.236;2023-04-03T16:49:58;4.40;99.90
20827;DHT22;10574;52.508;13.236;2023-04-03T16:52:26;4.50;99.90
20827;DHT22;10574;52.508;13.236;2023-04-03T16:54:53;4.50;99.90
20827;DHT22;10574;52.508;13.236;2023-04-03T16:57:23;4.40;99.90
20827;DHT22;10574;52.508;13.236;2023-04-03T16:59:53;4.50;99.90